UAAAUADD

Guest
Details From UAAA - Almaty Intl
To UADD - TARAZ
Flight Number -
Tags generated
Created
Modified
Stats Distance 257 nm / 475 km
Max Altitude 28,800 ft / 8,778 m
Waypoints 5
Social Downloads 0
Likes 0
Share VATSIM

Download

Looking for another format? Having issues loading an existing format? Contact us
Advertisement - Login to hide

Notes

Basic altitude profile: - Ascent Rate: 2500ft/min - Ascent Speed: 250kts - Cruise Altitude: 35000ft - Cruise Speed: 420kts - Descent Rate: 1500ft/min - Descent Speed: 250kts Options: - Use NATs: yes - Use PACOTS: yes - Use low airways: yes - Use high airways: yes

Route

UAAA OTARI G270 UADD

ID Type Via Altitude Latitude Longitude Leg Dist Tot Dist Heading (true) Name
O UAAA APT - 0 ft / 0 m 43.35523˚ 77.04457˚ - 0 nm - Almaty Intl
OTARI FIX - 24,900 ft / 7,590 m 43.54333˚ 75.46111˚ 69 nm 69 nm 280° / 279° -
BOGDI FIX G270 (AWY-HI) 28,800 ft / 8,778 m 43.36556˚ 74.28833˚ 52 nm 122 nm 259° / 258° -
GERPU FIX G270 (AWY-LO) 20,000 ft / 6,096 m 42.94889˚ 71.82361˚ 110 nm 233 nm 258° / 256° -
O UADD APT G270 (AWY-LO) 9,800 ft / 2,987 m 42.85353˚ 71.30369˚ 23 nm 256 nm 256° / 256° TARAZ

Altitude Profile

Advertisement - Login to hide

Weather


0- 5 10 15 20 25 30 35+ Temperature / ° C

Clouds and Precipitation
Forecast for 2018-05-20 12:00 UTC. Updated 2 hours ago

Ground ~20,000 ft ~40,000 ft Winds

UAAA

Details ICAO UAAA (ALA)
Name Almaty Intl
Region Kazakhstan and Kyrgyzstan
Timezone Asia/Almaty (UTC+6.0)
Stats Elevation 2,234 ft / 681 m (AMSL)
Location 43.355235° 77.044570°
Runways 2
Magnetic Variation 5.181° E

METAR

UAAA 201230Z 27002MPS 200V310 9999 FEW050 SCT200 21/M01 Q1022 R23L/CLRD65 NOSIG

Decode

TAF

TAF UAAA 201100Z 2012/2112 32005MPS 9999 SCT050CB BKN100 TX22/2109Z TN07/2101Z TEMPO 2012/2018 14005MPS 3000 BR FU BECMG 2101/2102 04006MPS

Decode

Departure Runways

ID Width Length Bearing (true) Bearing (mag) Surface Threshold Offset Overrun Length
05L 200 ft / 61 m 14,778 ft / 4,504 m 55.73° 50.55° Concrete 0 ft / 0 m 325 ft / 99 m
05R 148 ft / 45 m 14,408 ft / 4,392 m 55.72° 50.54° Asphalt 0 ft / 0 m 226 ft / 69 m
23L 148 ft / 45 m 14,408 ft / 4,392 m 235.75° 230.57° Asphalt 0 ft / 0 m 226 ft / 69 m
23R 200 ft / 61 m 14,778 ft / 4,504 m 235.76° 230.58° Concrete 0 ft / 0 m 390 ft / 119 m

UADD

Details ICAO UADD (DMB)
Name TARAZ
Region Kazakhstan and Kyrgyzstan
Timezone Asia/Almaty (UTC+6.0)
Stats Elevation 2,184 ft / 666 m (AMSL)
Location 42.853533° 71.303693°
Runways 1
Magnetic Variation 5.839° E

METAR

UADD 201230Z 04009MPS 9999 NSC 24/M02 Q1017 R13/0///65 NOSIG RMK QFE705/0941

Decode

TAF

Not found

Destination Runways

ID Width Length Bearing (true) Bearing (mag) Surface Threshold Offset Overrun Length
13 148 ft / 45 m 9,523 ft / 2,903 m 137.09° 131.25° Asphalt 0 ft / 0 m 0 ft / 0 m
31 148 ft / 45 m 9,523 ft / 2,903 m 317.11° 311.27° Asphalt 722 ft / 220 m 0 ft / 0 m

Popular Alternatives